createdAt,value
2022-07-27T00:01:06.967Z,100129.66
2022-07-27T00:03:35.149Z,100137.84
2022-07-27T00:06:02.945Z,100133.59
2022-07-27T00:08:30.819Z,100133.75
2022-07-27T00:11:00.330Z,100131.78
2022-07-27T00:13:28.659Z,100127.03
2022-07-27T00:15:56.763Z,100132.84
2022-07-27T00:18:25.020Z,100130.53
2022-07-27T00:20:53.062Z,100135.44
2022-07-27T00:23:21.222Z,100143.50
2022-07-27T00:25:48.985Z,100131.69
2022-07-27T00:28:18.613Z,100133.47
2022-07-27T00:30:46.849Z,100136.50
2022-07-27T00:33:17.463Z,100135.63
2022-07-27T00:35:45.798Z,100144.25
2022-07-27T00:38:13.948Z,100128.31
2022-07-27T00:40:42.282Z,100126.50
2022-07-27T00:43:10.237Z,100138.44
2022-07-27T00:45:39.779Z,100144.63
2022-07-27T00:48:08.022Z,100136.81
2022-07-27T00:50:36.087Z,100135.78
2022-07-27T00:53:06.074Z,100127.34
2022-07-27T00:55:34.361Z,100134.81
2022-07-27T00:58:05.066Z,100134.00
2022-07-27T01:00:33.086Z,100129.03
2022-07-27T01:03:09.333Z,100135.88
2022-07-27T01:05:43.015Z,100140.59
2022-07-27T01:08:14.661Z,100149.00
2022-07-27T01:10:44.363Z,100141.63
2022-07-27T01:13:13.423Z,100140.94
2022-07-27T01:15:42.629Z,100150.03
2022-07-27T01:18:14.600Z,100142.56
2022-07-27T01:20:43.093Z,100150.13
2022-07-27T01:23:12.310Z,100153.97
2022-07-27T01:25:42.476Z,100152.78
2022-07-27T01:28:10.618Z,100153.97
2022-07-27T01:30:38.362Z,100148.91
2022-07-27T01:33:08.108Z,100145.69
2022-07-27T01:35:37.271Z,100142.06
2022-07-27T01:38:06.094Z,100150.13
2022-07-27T01:40:36.789Z,100147.41
2022-07-27T01:43:05.797Z,100143.13
2022-07-27T01:45:33.682Z,100150.78
2022-07-27T01:48:02.211Z,100145.38
2022-07-27T01:50:30.588Z,100149.13
2022-07-27T01:52:58.512Z,100150.19
2022-07-27T01:55:26.589Z,100142.75
2022-07-27T01:58:00.753Z,100146.22
2022-07-27T02:00:28.711Z,100140.94
2022-07-27T02:02:56.651Z,100136.13
2022-07-27T02:05:24.958Z,100134.41
2022-07-27T02:07:53.157Z,100139.38
2022-07-27T02:10:21.187Z,100140.88
2022-07-27T02:12:48.447Z,100136.03
2022-07-27T02:15:20.211Z,100134.25
2022-07-27T02:17:49.384Z,100131.97
2022-07-27T02:20:21.231Z,100132.50
2022-07-27T02:22:49.708Z,100134.59
2022-07-27T02:25:19.726Z,100124.63
2022-07-27T02:27:48.710Z,100131.53
2022-07-27T02:30:18.009Z,100135.44
2022-07-27T02:32:46.438Z,100130.72
2022-07-27T02:35:18.703Z,100135.63
2022-07-27T02:37:49.074Z,100120.97
2022-07-27T02:40:18.470Z,100124.31
2022-07-27T02:42:46.403Z,100120.97
2022-07-27T02:45:15.303Z,100124.84
2022-07-27T02:47:45.507Z,100127.66
2022-07-27T02:50:13.439Z,100124.06
2022-07-27T02:52:41.788Z,100127.38
2022-07-27T02:55:11.087Z,100123.78
2022-07-27T02:57:41.366Z,100127.28
2022-07-27T03:00:12.750Z,100133.81
2022-07-27T03:02:41.587Z,100122.00
2022-07-27T03:05:12.556Z,100133.22
2022-07-27T03:07:40.697Z,100119.84
2022-07-27T03:10:09.982Z,100119.28
2022-07-27T03:12:37.847Z,100129.97
2022-07-27T03:15:06.695Z,100124.16
2022-07-27T03:17:34.939Z,100119.91
2022-07-27T03:20:03.197Z,100121.03
2022-07-27T03:22:33.564Z,100128.75
2022-07-27T03:25:01.859Z,100126.72
2022-07-27T03:27:30.292Z,100132.78
2022-07-27T03:29:58.282Z,100125.19
2022-07-27T03:32:26.550Z,100133.28
2022-07-27T03:34:54.844Z,100134.06
2022-07-27T03:37:23.005Z,100130.75
2022-07-27T03:39:52.182Z,100137.38
2022-07-27T03:42:20.416Z,100133.97
2022-07-27T03:44:48.525Z,100135.31
2022-07-27T03:47:16.683Z,100133.72
2022-07-27T03:49:44.555Z,100135.84
2022-07-27T03:52:17.367Z,100143.47
2022-07-27T03:54:46.254Z,100147.84
2022-07-27T03:57:16.080Z,100143.75
2022-07-27T03:59:44.227Z,100150.63
2022-07-27T04:02:12.325Z,100146.88
2022-07-27T04:04:40.277Z,100152.28
2022-07-27T04:07:08.763Z,100150.00
2022-07-27T04:09:37.916Z,100146.78
2022-07-27T04:12:08.464Z,100150.88
2022-07-27T04:14:38.193Z,100150.88
2022-07-27T04:17:06.063Z,100154.16
2022-07-27T04:19:34.335Z,100166.19
2022-07-27T04:22:03.436Z,100159.97
2022-07-27T04:24:37.438Z,100160.41
2022-07-27T04:27:05.439Z,100151.06
2022-07-27T04:29:33.701Z,100159.00
2022-07-27T04:32:03.479Z,100159.25
2022-07-27T04:34:31.201Z,100151.06
2022-07-27T04:36:59.261Z,100154.47
2022-07-27T04:39:27.530Z,100152.69
2022-07-27T04:41:55.292Z,100147.59
2022-07-27T04:44:23.415Z,100148.06
2022-07-27T04:46:51.433Z,100146.47
2022-07-27T04:49:20.745Z,100150.25
2022-07-27T04:51:48.701Z,100153.22
2022-07-27T04:54:16.750Z,100163.56
2022-07-27T04:56:44.807Z,100157.63
2022-07-27T04:59:13.365Z,100158.59
2022-07-27T05:01:41.506Z,100157.78
2022-07-27T05:04:09.403Z,100168.47
2022-07-27T05:06:38.782Z,100169.84
2022-07-27T05:09:07.326Z,100173.47
2022-07-27T05:11:35.256Z,100179.03
2022-07-27T05:14:04.040Z,100178.28
2022-07-27T05:16:32.204Z,100184.06
2022-07-27T05:19:00.124Z,100179.69
2022-07-27T05:21:29.200Z,100180.66
2022-07-27T05:23:59.657Z,100191.06
2022-07-27T05:26:27.886Z,100190.88
2022-07-27T05:28:55.975Z,100196.56
2022-07-27T05:31:23.812Z,100200.41
2022-07-27T05:33:58.151Z,100201.75
2022-07-27T05:36:26.361Z,100201.28
2022-07-27T05:38:54.240Z,100200.84
2022-07-27T05:41:25.593Z,100200.66
2022-07-27T05:43:55.303Z,100200.75
2022-07-27T05:46:23.610Z,100198.91
2022-07-27T05:48:51.644Z,100202.59
2022-07-27T05:51:19.784Z,100206.09
2022-07-27T05:53:47.895Z,100207.88
2022-07-27T05:56:15.727Z,100208.91
2022-07-27T05:58:44.959Z,100210.56
2022-07-27T06:01:13.016Z,100209.19
2022-07-27T06:03:41.031Z,100204.22
2022-07-27T06:06:26.379Z,100207.84
2022-07-27T06:08:55.319Z,100219.28
2022-07-27T06:11:23.300Z,100209.75
2022-07-27T06:13:52.919Z,100207.06
2022-07-27T06:16:20.798Z,100219.69
2022-07-27T06:18:49.118Z,100219.38
2022-07-27T06:21:17.117Z,100220.50
2022-07-27T06:23:45.276Z,100227.31
2022-07-27T06:26:13.349Z,100238.06
2022-07-27T06:28:41.625Z,100237.88
2022-07-27T06:31:10.974Z,100243.66
2022-07-27T06:33:38.883Z,100242.44
2022-07-27T06:36:08.399Z,100234.81
2022-07-27T06:38:36.341Z,100241.38
2022-07-27T06:41:04.690Z,100246.38
2022-07-27T06:43:33.564Z,100253.41
2022-07-27T06:46:03.380Z,100242.25
2022-07-27T06:48:32.700Z,100244.72
2022-07-27T06:51:01.270Z,100238.66
2022-07-27T06:53:29.399Z,100238.47
2022-07-27T06:56:04.951Z,100239.38
2022-07-27T06:58:32.925Z,100239.78
2022-07-27T07:01:02.530Z,100240.66
2022-07-27T07:03:32.141Z,100246.28
2022-07-27T07:05:59.997Z,100242.03
2022-07-27T07:08:28.269Z,100240.66
2022-07-27T07:10:56.385Z,100251.28
2022-07-27T07:13:24.538Z,100248.94
2022-07-27T07:15:52.525Z,100255.47
2022-07-27T07:18:20.741Z,100247.06
2022-07-27T07:20:50.241Z,100242.50
2022-07-27T07:23:18.120Z,100238.50
2022-07-27T07:25:45.861Z,100254.41
2022-07-27T07:28:14.053Z,100242.75
2022-07-27T07:30:42.879Z,100247.13
2022-07-27T07:33:10.915Z,100249.03
2022-07-27T07:35:38.782Z,100259.50
2022-07-27T07:38:28.045Z,100254.25
2022-07-27T07:40:55.783Z,100250.50
2022-07-27T07:43:23.674Z,100252.38
2022-07-27T07:45:52.297Z,100253.09
2022-07-27T07:48:22.165Z,100251.78
2022-07-27T07:50:52.149Z,100250.00
2022-07-27T07:53:22.577Z,100250.09
2022-07-27T07:55:52.317Z,100241.28
2022-07-27T07:58:20.735Z,100247.56
2022-07-27T08:00:49.095Z,100243.56
2022-07-27T08:03:17.534Z,100256.13
2022-07-27T08:05:46.019Z,100257.13
2022-07-27T08:08:14.832Z,100252.41
2022-07-27T08:10:42.696Z,100253.28
2022-07-27T08:13:12.390Z,100248.94
2022-07-27T08:15:40.268Z,100255.69
2022-07-27T08:18:09.573Z,100268.25
2022-07-27T08:20:37.875Z,100258.75
2022-07-27T08:23:05.825Z,100251.91
2022-07-27T08:28:02.649Z,100253.44
2022-07-27T08:30:33.709Z,100253.03
2022-07-27T08:33:04.176Z,100258.09
2022-07-27T08:35:33.700Z,100259.22
2022-07-27T08:38:02.909Z,100252.38
2022-07-27T08:40:41.441Z,100265.69
2022-07-27T08:43:11.761Z,100269.31
2022-07-27T08:45:44.327Z,100268.91
2022-07-27T08:48:14.034Z,100259.06
2022-07-27T08:50:42.931Z,100260.66
2022-07-27T08:53:14.170Z,100264.34
2022-07-27T08:55:44.012Z,100268.03
2022-07-27T08:58:13.820Z,100259.31
2022-07-27T09:00:45.254Z,100266.03
2022-07-27T09:03:19.027Z,100269.44
2022-07-27T09:05:49.737Z,100264.69
2022-07-27T09:08:21.629Z,100270.88
2022-07-27T09:10:50.085Z,100264.31
2022-07-27T09:13:28.998Z,100277.16
2022-07-27T09:18:48.491Z,100273.03
2022-07-27T09:21:18.470Z,100281.84
2022-07-27T09:23:48.631Z,100275.34
2022-07-27T09:26:31.859Z,100272.59
2022-07-27T09:29:03.697Z,100276.56
2022-07-27T09:31:34.086Z,100277.31
2022-07-27T09:34:03.618Z,100269.69
2022-07-27T09:36:32.607Z,100268.13
2022-07-27T09:39:04.204Z,100268.16
2022-07-27T09:41:49.593Z,100272.06
2022-07-27T09:44:34.716Z,100259.50
2022-07-27T09:47:22.585Z,100253.94
2022-07-27T09:49:50.980Z,100260.41
2022-07-27T09:52:24.612Z,100256.53
2022-07-27T09:54:52.941Z,100254.59
2022-07-27T09:57:21.185Z,100259.06
2022-07-27T09:59:49.170Z,100249.00
2022-07-27T10:02:18.962Z,100262.13
2022-07-27T10:04:48.480Z,100250.50
2022-07-27T10:07:17.895Z,100253.41
2022-07-27T10:09:47.033Z,100249.28
2022-07-27T10:12:14.815Z,100256.28
2022-07-27T10:14:44.184Z,100267.47
2022-07-27T10:17:13.726Z,100263.47
2022-07-27T10:19:47.721Z,100258.78
2022-07-27T10:22:16.010Z,100269.00
2022-07-27T10:24:45.455Z,100263.44
2022-07-27T10:27:22.565Z,100269.22
2022-07-27T10:29:52.001Z,100256.91
2022-07-27T10:32:27.095Z,100263.81
2022-07-27T10:34:56.410Z,100273.97
2022-07-27T10:37:26.564Z,100271.69
2022-07-27T10:40:16.092Z,100268.13
2022-07-27T10:42:47.817Z,100271.31
2022-07-27T10:45:20.522Z,100279.06
2022-07-27T10:47:51.005Z,100280.31
2022-07-27T10:50:32.630Z,100273.63
2022-07-27T10:53:11.327Z,100285.00
2022-07-27T10:55:49.566Z,100283.38
2022-07-27T10:58:59.958Z,100286.13
2022-07-27T11:01:28.372Z,100278.63
2022-07-27T11:03:57.032Z,100278.50
2022-07-27T11:06:36.309Z,100270.84
2022-07-27T11:11:59.626Z,100264.28
2022-07-27T11:14:31.234Z,100251.50
2022-07-27T11:17:32.444Z,100256.25
2022-07-27T11:19:54.904Z,100248.50
2022-07-27T11:25:24.690Z,100242.69
2022-07-27T11:27:55.320Z,100238.97
2022-07-27T11:30:25.266Z,100242.72
2022-07-27T11:32:53.990Z,100247.84
2022-07-27T11:35:22.325Z,100244.34
2022-07-27T11:38:07.868Z,100257.38
2022-07-27T11:40:57.013Z,100249.47
2022-07-27T11:43:39.051Z,100246.78
2022-07-27T11:46:16.136Z,100241.25
2022-07-27T11:51:38.516Z,100248.34
2022-07-27T11:54:10.027Z,100252.81
2022-07-27T11:56:40.311Z,100252.75
2022-07-27T11:59:12.345Z,100249.72
2022-07-27T12:01:42.346Z,100241.81
2022-07-27T12:04:28.648Z,100237.25
2022-07-27T12:07:03.525Z,100233.00
2022-07-27T12:09:38.660Z,100233.97
2022-07-27T12:12:12.363Z,100229.63
2022-07-27T12:14:42.871Z,100239.06
2022-07-27T12:17:28.997Z,100237.97
2022-07-27T12:20:01.023Z,100235.84
2022-07-27T12:22:35.535Z,100238.97
2022-07-27T12:25:12.374Z,100227.59
2022-07-27T12:27:56.437Z,100234.84
2022-07-27T12:30:31.142Z,100222.47
2022-07-27T12:32:59.938Z,100230.84
2022-07-27T12:35:36.066Z,100238.56
2022-07-27T12:38:07.301Z,100233.94
2022-07-27T12:40:45.143Z,100223.44
2022-07-27T12:43:17.698Z,100228.03
2022-07-27T12:45:46.508Z,100220.81
2022-07-27T12:48:17.948Z,100216.25
2022-07-27T12:50:48.517Z,100215.66
2022-07-27T12:53:18.853Z,100219.09
2022-07-27T12:55:48.788Z,100212.41
2022-07-27T12:58:17.220Z,100210.16
2022-07-27T13:00:45.695Z,100209.13
2022-07-27T13:03:13.741Z,100214.00
2022-07-27T13:05:42.546Z,100211.41
2022-07-27T13:08:11.690Z,100205.06
2022-07-27T13:10:40.802Z,100208.50
2022-07-27T13:13:10.327Z,100207.97
2022-07-27T13:15:38.668Z,100201.09
2022-07-27T13:18:08.307Z,100199.09
2022-07-27T13:20:37.032Z,100204.78
2022-07-27T13:23:08.205Z,100200.78
2022-07-27T13:25:41.084Z,100203.38
2022-07-27T13:28:13.006Z,100194.66
2022-07-27T13:30:41.186Z,100187.91
2022-07-27T13:33:09.732Z,100178.22
2022-07-27T13:35:38.204Z,100167.50
2022-07-27T13:38:06.284Z,100179.72
2022-07-27T13:40:34.212Z,100191.75
2022-07-27T13:43:02.563Z,100185.72
2022-07-27T13:45:43.419Z,100168.41
2022-07-27T13:48:13.197Z,100168.88
2022-07-27T13:50:41.544Z,100165.13
2022-07-27T13:53:15.008Z,100180.44
2022-07-27T13:55:44.318Z,100177.00
2022-07-27T13:58:13.426Z,100183.41
2022-07-27T14:00:42.702Z,100179.00
2022-07-27T14:03:11.819Z,100179.56
2022-07-27T14:05:43.062Z,100178.88
2022-07-27T14:08:19.300Z,100174.22
2022-07-27T14:10:48.173Z,100170.91
2022-07-27T14:13:17.964Z,100171.03
2022-07-27T14:15:52.983Z,100164.34
2022-07-27T14:18:24.468Z,100175.16
2022-07-27T14:20:53.099Z,100176.78
2022-07-27T14:23:21.015Z,100195.56
2022-07-27T14:25:49.216Z,100183.28
2022-07-27T14:28:17.298Z,100173.03
2022-07-27T14:30:47.566Z,100174.84
2022-07-27T14:33:17.821Z,100178.13
2022-07-27T14:35:46.611Z,100179.97
2022-07-27T14:38:30.200Z,100166.81
2022-07-27T14:41:00.953Z,100187.91
2022-07-27T14:43:31.613Z,100183.47
2022-07-27T14:46:00.758Z,100180.28
2022-07-27T14:49:04.086Z,100177.19
2022-07-27T14:51:18.202Z,100176.09
2022-07-27T14:53:46.236Z,100186.75
2022-07-27T14:56:14.656Z,100177.63
2022-07-27T14:58:42.636Z,100175.19
2022-07-27T15:01:10.917Z,100177.09
2022-07-27T15:03:40.695Z,100180.75
2022-07-27T15:06:08.715Z,100178.97
2022-07-27T15:08:36.703Z,100168.28
2022-07-27T15:11:04.634Z,100179.00
2022-07-27T15:13:32.784Z,100186.63
2022-07-27T15:16:00.509Z,100174.94
2022-07-27T15:18:28.727Z,100175.56
2022-07-27T15:20:58.846Z,100177.00
2022-07-27T15:23:27.262Z,100154.88
2022-07-27T15:25:55.035Z,100149.06
2022-07-27T15:28:23.447Z,100154.75
2022-07-27T15:30:51.265Z,100148.53
2022-07-27T15:33:19.270Z,100154.41
2022-07-27T15:35:47.316Z,100151.78
2022-07-27T15:38:16.959Z,100150.13
2022-07-27T15:40:47.428Z,100149.97
2022-07-27T15:43:18.065Z,100146.59
2022-07-27T15:45:48.129Z,100146.31
2022-07-27T15:48:17.802Z,100154.31
2022-07-27T15:50:48.699Z,100144.31
2022-07-27T15:53:20.807Z,100144.91
2022-07-27T15:55:50.376Z,100147.94
2022-07-27T15:58:19.547Z,100141.59
2022-07-27T16:00:49.320Z,100159.84
2022-07-27T16:03:19.370Z,100139.97
2022-07-27T16:05:50.811Z,100148.78
2022-07-27T16:08:20.817Z,100136.88
2022-07-27T16:10:50.101Z,100141.59
2022-07-27T16:13:18.871Z,100129.44
2022-07-27T16:16:05.063Z,100132.53
2022-07-27T16:18:38.582Z,100133.25
2022-07-27T16:21:07.231Z,100134.78
2022-07-27T16:23:36.818Z,100129.44
2022-07-27T16:26:06.739Z,100131.44
2022-07-27T16:28:39.048Z,100128.34
2022-07-27T16:31:09.193Z,100110.47
2022-07-27T16:33:37.360Z,100121.88
2022-07-27T16:36:08.653Z,100119.22
2022-07-27T16:38:39.150Z,100112.84
2022-07-27T16:41:17.545Z,100108.31
2022-07-27T16:43:45.738Z,100105.84
2022-07-27T16:46:15.440Z,100107.31
2022-07-27T16:48:43.775Z,100110.16
2022-07-27T16:51:16.250Z,100112.59
2022-07-27T16:53:48.114Z,100106.22
2022-07-27T16:56:17.603Z,100105.84
2022-07-27T16:58:45.460Z,100101.59
2022-07-27T17:01:21.969Z,100107.63
2022-07-27T17:03:56.480Z,100102.56
2022-07-27T17:06:24.984Z,100103.78
2022-07-27T17:08:54.551Z,100105.31
2022-07-27T17:11:23.436Z,100101.47
2022-07-27T17:13:53.833Z,100102.34
2022-07-27T17:16:28.565Z,100108.75
2022-07-27T17:18:56.915Z,100102.19
2022-07-27T17:21:24.972Z,100105.81
2022-07-27T17:23:54.280Z,100105.84
2022-07-27T17:26:24.928Z,100106.38
2022-07-27T17:28:53.501Z,100111.50
2022-07-27T17:31:22.900Z,100110.81
2022-07-27T17:33:51.429Z,100107.34
2022-07-27T17:36:19.997Z,100108.72
2022-07-27T17:38:48.891Z,100120.06
2022-07-27T17:41:24.141Z,100105.38
2022-07-27T17:43:54.116Z,100095.03
2022-07-27T17:46:22.999Z,100102.00
2022-07-27T17:48:52.101Z,100112.09
2022-07-27T17:51:23.218Z,100105.72
2022-07-27T17:53:51.561Z,100109.59
2022-07-27T17:56:21.868Z,100100.78
2022-07-27T17:58:49.932Z,100109.91
2022-07-27T18:01:18.291Z,100106.84
2022-07-27T18:04:07.264Z,100106.94
2022-07-27T18:06:35.800Z,100102.25
2022-07-27T18:09:04.203Z,100106.78
2022-07-27T18:11:33.870Z,100107.84
2022-07-27T18:14:01.859Z,100101.22
2022-07-27T18:16:30.035Z,100109.06
2022-07-27T18:18:58.957Z,100114.28
2022-07-27T18:21:27.135Z,100111.94
2022-07-27T18:23:55.406Z,100116.34
2022-07-27T18:26:23.651Z,100119.25
2022-07-27T18:28:55.661Z,100110.06
2022-07-27T18:31:23.955Z,100109.97
2022-07-27T18:33:54.585Z,100120.25
2022-07-27T18:36:26.673Z,100122.19
2022-07-27T18:38:55.239Z,100124.47
2022-07-27T18:41:24.970Z,100124.81
2022-07-27T18:43:55.942Z,100128.97
2022-07-27T18:46:25.406Z,100128.94
2022-07-27T18:48:54.701Z,100133.44
2022-07-27T18:51:23.207Z,100136.59
2022-07-27T18:53:53.736Z,100137.28
2022-07-27T18:56:23.093Z,100135.47
2022-07-27T18:58:51.496Z,100136.28
2022-07-27T19:01:21.993Z,100145.22
2022-07-27T19:03:50.987Z,100145.41
2022-07-27T19:06:20.102Z,100147.72
2022-07-27T19:08:51.074Z,100158.28
2022-07-27T19:11:19.666Z,100155.31
2022-07-27T19:13:47.890Z,100162.41
2022-07-27T19:16:16.491Z,100163.50
2022-07-27T19:18:45.804Z,100163.31
2022-07-27T19:21:14.141Z,100173.69
2022-07-27T19:23:42.123Z,100174.97
2022-07-27T19:26:10.168Z,100167.88
2022-07-27T19:28:39.361Z,100176.09
2022-07-27T19:31:07.355Z,100172.47
2022-07-27T19:33:53.439Z,100179.19
2022-07-27T19:36:22.975Z,100179.00
2022-07-27T19:38:52.241Z,100181.66
2022-07-27T19:41:21.179Z,100187.03
2022-07-27T19:43:49.693Z,100186.31
2022-07-27T19:46:18.311Z,100189.00
2022-07-27T19:48:46.757Z,100191.94
2022-07-27T19:51:17.028Z,100187.22
2022-07-27T19:53:46.119Z,100193.31
2022-07-27T19:56:15.825Z,100195.13
2022-07-27T19:58:44.216Z,100200.56
2022-07-27T20:01:13.487Z,100204.19
2022-07-27T20:03:52.658Z,100200.91
2022-07-27T20:06:24.476Z,100209.44
2022-07-27T20:08:56.105Z,100205.91
2022-07-27T20:11:24.197Z,100214.31
2022-07-27T20:13:52.536Z,100214.00
2022-07-27T20:16:20.582Z,100210.34
2022-07-27T20:18:48.480Z,100209.88
2022-07-27T20:21:22.654Z,100212.28
2022-07-27T20:23:53.271Z,100219.25
2022-07-27T20:26:22.994Z,100210.69
2022-07-27T20:28:51.019Z,100212.06
2022-07-27T20:31:19.551Z,100211.00
2022-07-27T20:33:47.948Z,100215.00
2022-07-27T20:36:17.092Z,100205.69
2022-07-27T20:38:45.459Z,100200.44
2022-07-27T20:41:14.693Z,100198.09
2022-07-27T20:43:43.016Z,100199.06
2022-07-27T20:46:11.263Z,100205.47
2022-07-27T20:48:40.981Z,100207.97
2022-07-27T20:51:09.846Z,100211.03
2022-07-27T20:53:39.441Z,100212.41
2022-07-27T20:56:07.850Z,100207.97
2022-07-27T20:58:37.220Z,100202.47
2022-07-27T21:01:05.817Z,100202.09
2022-07-27T21:03:35.699Z,100212.75
2022-07-27T21:06:04.246Z,100202.66
2022-07-27T21:08:32.737Z,100216.66
2022-07-27T21:11:02.567Z,100211.16
2022-07-27T21:13:31.039Z,100211.16
2022-07-27T21:16:00.152Z,100215.47
2022-07-27T21:18:29.203Z,100200.88
2022-07-27T21:20:57.675Z,100205.66
2022-07-27T21:23:43.024Z,100211.28
2022-07-27T21:26:11.868Z,100214.97
2022-07-27T21:28:45.349Z,100215.50
2022-07-27T21:31:15.354Z,100214.16
2022-07-27T21:33:43.537Z,100210.38
2022-07-27T21:36:11.789Z,100205.09
2022-07-27T21:38:40.224Z,100218.63
2022-07-27T21:41:09.007Z,100212.84
2022-07-27T21:43:37.704Z,100213.41
2022-07-27T21:46:05.584Z,100223.69
2022-07-27T21:48:35.843Z,100209.03
2022-07-27T21:51:04.040Z,100214.31
2022-07-27T21:53:32.916Z,100217.34
2022-07-27T21:56:01.082Z,100218.63
2022-07-27T21:58:28.985Z,100220.59
2022-07-27T22:00:57.171Z,100221.97
2022-07-27T22:03:25.414Z,100228.63
2022-07-27T22:05:54.875Z,100227.25
2022-07-27T22:08:22.838Z,100219.66
2022-07-27T22:10:51.006Z,100219.69
2022-07-27T22:13:19.578Z,100223.81
2022-07-27T22:15:49.559Z,100223.69
2022-07-27T22:18:18.090Z,100227.69
2022-07-27T22:20:45.993Z,100228.97
2022-07-27T22:23:15.549Z,100226.72
2022-07-27T22:25:43.697Z,100230.31
2022-07-27T22:28:11.994Z,100232.44
2022-07-27T22:30:41.235Z,100248.06
2022-07-27T22:33:09.319Z,100251.66
2022-07-27T22:35:37.391Z,100244.34
2022-07-27T22:38:05.393Z,100241.47
2022-07-27T22:40:34.616Z,100245.22
2022-07-27T22:43:02.705Z,100242.59
2022-07-27T22:45:31.608Z,100240.22
2022-07-27T22:48:00.138Z,100236.09
2022-07-27T22:50:28.631Z,100241.63
2022-07-27T22:52:59.254Z,100242.97
2022-07-27T22:55:27.296Z,100251.25
2022-07-27T22:57:56.850Z,100238.97
2022-07-27T23:00:24.811Z,100242.53
2022-07-27T23:02:52.927Z,100241.84
2022-07-27T23:05:21.002Z,100242.13
2022-07-27T23:07:49.143Z,100248.06
2022-07-27T23:10:34.968Z,100239.78
2022-07-27T23:13:04.549Z,100241.56
2022-07-27T23:15:32.827Z,100242.50
2022-07-27T23:18:01.359Z,100240.31
2022-07-27T23:20:29.591Z,100230.19
2022-07-27T23:22:57.726Z,100237.78
2022-07-27T23:25:36.095Z,100245.91
2022-07-27T23:28:06.612Z,100237.34
2022-07-27T23:30:35.000Z,100231.50
2022-07-27T23:33:03.215Z,100235.63
2022-07-27T23:35:31.455Z,100244.28
2022-07-27T23:37:59.641Z,100243.31
2022-07-27T23:40:29.120Z,100236.28
2022-07-27T23:42:57.302Z,100237.22
2022-07-27T23:45:28.139Z,100233.31
2022-07-27T23:47:56.428Z,100230.13
2022-07-27T23:50:24.677Z,100235.22
2022-07-27T23:52:52.890Z,100233.13
2022-07-27T23:55:21.196Z,100227.19
2022-07-27T23:57:49.336Z,100229.78
